createdAt,value
2023-01-19T00:02:06.411Z,44.08
2023-01-19T00:04:36.110Z,44.02
2023-01-19T00:07:09.323Z,44.08
2023-01-19T00:09:39.281Z,44.08
2023-01-19T00:12:07.460Z,44.18
2023-01-19T00:14:37.835Z,44.01
2023-01-19T00:17:13.212Z,44.10
2023-01-19T00:19:41.271Z,43.99
2023-01-19T00:22:12.077Z,44.41
2023-01-19T00:24:47.022Z,44.01
2023-01-19T00:27:14.103Z,44.05
2023-01-19T00:29:44.663Z,43.99
2023-01-19T00:32:17.417Z,44.17
2023-01-19T00:34:50.448Z,44.16
2023-01-19T00:37:24.687Z,44.00
2023-01-19T00:39:51.817Z,43.88
2023-01-19T00:42:21.599Z,43.96
2023-01-19T00:44:54.611Z,43.90
2023-01-19T00:47:25.106Z,43.91
2023-01-19T00:49:59.306Z,43.86
2023-01-19T00:52:27.217Z,43.92
2023-01-19T00:55:03.414Z,44.43
2023-01-19T00:57:33.813Z,44.06
2023-01-19T01:00:06.021Z,44.12
2023-01-19T01:02:39.554Z,44.28
2023-01-19T01:05:07.848Z,44.15
2023-01-19T01:07:39.727Z,44.25
2023-01-19T01:10:28.759Z,44.29
2023-01-19T01:13:22.336Z,44.22
2023-01-19T01:15:51.454Z,44.28
2023-01-19T01:18:22.186Z,44.36
2023-01-19T01:20:54.508Z,44.29
2023-01-19T01:23:22.383Z,44.36
2023-01-19T01:25:49.850Z,44.27
2023-01-19T01:28:23.386Z,44.37
2023-01-19T01:30:57.991Z,44.35
2023-01-19T01:33:41.026Z,44.48
2023-01-19T01:36:11.302Z,44.55
2023-01-19T01:38:45.039Z,44.64
2023-01-19T01:41:13.022Z,44.46
2023-01-19T01:43:48.958Z,44.51
2023-01-19T01:46:22.474Z,44.63
2023-01-19T01:49:16.851Z,44.68
2023-01-19T01:51:49.167Z,44.64
2023-01-19T01:54:35.878Z,44.61
2023-01-19T01:57:07.315Z,44.75
2023-01-19T01:59:45.431Z,44.65
2023-01-19T02:02:19.332Z,44.65
2023-01-19T02:04:56.600Z,44.69
2023-01-19T02:07:46.596Z,44.67
2023-01-19T02:10:19.489Z,44.67
2023-01-19T02:12:49.273Z,44.63
2023-01-19T02:15:24.084Z,44.71
2023-01-19T02:17:53.792Z,44.76
2023-01-19T02:20:25.850Z,44.76
2023-01-19T02:23:03.861Z,44.77
2023-01-19T02:25:37.600Z,44.74
2023-01-19T02:28:08.871Z,44.72
2023-01-19T02:30:44.444Z,44.77
2023-01-19T02:33:14.473Z,44.74
2023-01-19T02:35:52.668Z,44.74
2023-01-19T02:38:26.750Z,44.86
2023-01-19T02:41:03.823Z,44.81
2023-01-19T02:43:31.330Z,44.84
2023-01-19T02:45:58.507Z,44.88
2023-01-19T02:48:28.855Z,44.96
2023-01-19T02:51:14.776Z,44.82
2023-01-19T02:54:05.617Z,44.85
2023-01-19T02:56:52.093Z,44.88
2023-01-19T02:59:50.046Z,44.85
2023-01-19T03:02:56.594Z,44.84
2023-01-19T03:05:53.791Z,44.81
2023-01-19T03:08:45.488Z,44.78
2023-01-19T03:11:17.786Z,44.82
2023-01-19T03:14:01.981Z,44.81
2023-01-19T03:16:51.772Z,44.84
2023-01-19T03:19:34.906Z,44.85
2023-01-19T03:22:29.632Z,44.81
2023-01-19T03:25:01.940Z,44.78
2023-01-19T03:27:33.934Z,44.78
2023-01-19T03:30:06.489Z,44.72
2023-01-19T03:32:39.659Z,44.73
2023-01-19T03:35:13.237Z,44.75
2023-01-19T03:37:45.606Z,44.69
2023-01-19T03:40:13.304Z,44.72
2023-01-19T03:42:44.594Z,44.64
2023-01-19T03:45:19.272Z,44.75
2023-01-19T03:47:55.646Z,44.70
2023-01-19T03:50:31.444Z,44.66
2023-01-19T03:53:12.551Z,44.69
2023-01-19T03:55:49.048Z,44.71
2023-01-19T03:58:19.231Z,44.69
2023-01-19T04:00:46.952Z,44.64
2023-01-19T04:03:21.204Z,44.64
2023-01-19T04:05:51.338Z,44.66
2023-01-19T04:08:21.159Z,44.64
2023-01-19T04:10:57.529Z,44.62
2023-01-19T04:13:30.567Z,44.64
2023-01-19T04:16:07.171Z,44.64
2023-01-19T04:18:37.865Z,44.63
2023-01-19T04:21:12.391Z,44.58
2023-01-19T04:23:42.652Z,44.65
2023-01-19T04:26:10.205Z,44.64
2023-01-19T04:28:43.485Z,44.79
2023-01-19T04:31:11.149Z,44.80
2023-01-19T04:33:45.106Z,44.64
2023-01-19T04:36:19.001Z,44.62
2023-01-19T04:38:50.787Z,44.67
2023-01-19T04:41:27.399Z,44.61
2023-01-19T04:44:01.358Z,44.62
2023-01-19T04:46:29.203Z,44.59
2023-01-19T04:48:56.296Z,44.65
2023-01-19T04:51:30.036Z,44.62
2023-01-19T04:54:00.209Z,44.68
2023-01-19T04:56:36.809Z,44.65
2023-01-19T04:59:03.870Z,44.64
2023-01-19T05:01:35.195Z,44.62
2023-01-19T05:04:09.139Z,44.74
2023-01-19T05:06:36.306Z,44.73
2023-01-19T05:09:09.479Z,44.67
2023-01-19T05:11:36.903Z,44.69
2023-01-19T05:14:07.938Z,44.72
2023-01-19T05:16:38.672Z,44.80
2023-01-19T05:19:05.730Z,44.79
2023-01-19T05:21:32.850Z,44.85
2023-01-19T05:24:03.131Z,44.95
2023-01-19T05:26:30.223Z,45.09
2023-01-19T05:29:03.925Z,44.99
2023-01-19T05:31:31.741Z,45.08
2023-01-19T05:34:05.641Z,44.81
2023-01-19T05:36:33.255Z,44.79
2023-01-19T05:39:00.347Z,44.76
2023-01-19T05:41:27.466Z,44.78
2023-01-19T05:44:03.875Z,44.79
2023-01-19T05:46:33.894Z,44.85
2023-01-19T05:49:05.910Z,44.83
2023-01-19T05:51:39.676Z,45.08
2023-01-19T05:54:12.823Z,44.99
2023-01-19T05:56:42.859Z,45.39
2023-01-19T05:59:13.462Z,45.25
2023-01-19T06:01:44.172Z,45.21
2023-01-19T06:04:11.508Z,45.11
2023-01-19T06:06:38.899Z,44.97
2023-01-19T06:09:09.312Z,44.93
2023-01-19T06:11:39.794Z,44.25
2023-01-19T06:14:15.590Z,42.54
2023-01-19T06:16:47.515Z,41.43
2023-01-19T06:19:17.672Z,42.52
2023-01-19T06:21:45.314Z,44.30
2023-01-19T06:24:19.883Z,44.61
2023-01-19T06:26:49.897Z,44.95
2023-01-19T06:29:21.509Z,45.01
2023-01-19T06:31:55.071Z,44.91
2023-01-19T06:34:22.437Z,45.43
2023-01-19T06:36:52.863Z,45.38
2023-01-19T06:39:19.648Z,45.81
2023-01-19T06:41:48.669Z,45.56
2023-01-19T06:44:15.602Z,45.71
2023-01-19T06:46:49.772Z,45.75
2023-01-19T06:49:19.832Z,45.93
2023-01-19T06:51:46.543Z,45.73
2023-01-19T06:54:16.377Z,45.67
2023-01-19T06:56:46.039Z,45.60
2023-01-19T06:59:16.086Z,45.36
2023-01-19T07:01:46.978Z,45.27
2023-01-19T07:04:14.089Z,45.25
2023-01-19T07:06:50.563Z,45.31
2023-01-19T07:09:20.666Z,45.96
2023-01-19T07:11:50.051Z,45.50
2023-01-19T07:14:16.952Z,45.90
2023-01-19T07:16:52.068Z,45.58
2023-01-19T07:19:19.042Z,45.48
2023-01-19T07:21:48.984Z,45.45
2023-01-19T07:24:18.810Z,45.49
2023-01-19T07:26:45.690Z,45.55
2023-01-19T07:29:19.076Z,45.72
2023-01-19T07:31:46.194Z,45.77
2023-01-19T07:34:14.682Z,45.50
2023-01-19T07:36:41.971Z,45.48
2023-01-19T07:39:12.506Z,45.57
2023-01-19T07:41:51.469Z,45.49
2023-01-19T07:44:26.598Z,45.54
2023-01-19T07:46:57.056Z,45.57
2023-01-19T07:49:24.998Z,45.58
2023-01-19T07:51:55.459Z,45.59
2023-01-19T07:54:31.634Z,45.51
2023-01-19T07:56:59.014Z,45.53
2023-01-19T07:59:31.836Z,45.66
2023-01-19T08:01:59.636Z,45.72
2023-01-19T08:04:33.293Z,45.64
2023-01-19T08:07:02.661Z,45.17
2023-01-19T08:09:30.126Z,46.33
2023-01-19T08:12:00.127Z,46.41
2023-01-19T08:14:27.594Z,46.55
2023-01-19T08:17:04.259Z,46.39
2023-01-19T08:19:32.769Z,46.20
2023-01-19T08:22:03.324Z,46.03
2023-01-19T08:24:33.765Z,46.19
2023-01-19T08:27:10.128Z,45.96
2023-01-19T08:29:43.672Z,45.98
2023-01-19T08:32:20.037Z,45.94
2023-01-19T08:34:47.173Z,46.36
2023-01-19T08:37:20.263Z,46.65
2023-01-19T08:39:49.415Z,46.60
2023-01-19T08:42:22.396Z,46.65
2023-01-19T08:44:58.137Z,46.65
2023-01-19T08:47:29.601Z,46.57
2023-01-19T08:49:59.053Z,46.78
2023-01-19T08:52:30.549Z,46.77
2023-01-19T08:55:01.365Z,46.49
2023-01-19T08:57:31.192Z,46.53
2023-01-19T09:00:01.375Z,46.46
2023-01-19T09:02:32.558Z,46.17
2023-01-19T09:05:06.287Z,46.19
2023-01-19T09:07:36.699Z,46.10
2023-01-19T09:10:05.447Z,46.34
2023-01-19T09:12:33.386Z,46.27
2023-01-19T09:15:05.958Z,46.19
2023-01-19T09:17:39.433Z,46.17
2023-01-19T09:20:12.339Z,46.18
2023-01-19T09:22:42.890Z,46.42
2023-01-19T09:25:12.736Z,46.59
2023-01-19T09:27:45.103Z,46.57
2023-01-19T09:30:16.239Z,46.47
2023-01-19T09:32:50.068Z,46.58
2023-01-19T09:35:20.857Z,46.52
2023-01-19T09:37:51.646Z,46.50
2023-01-19T09:40:24.485Z,46.36
2023-01-19T09:43:11.947Z,46.33
2023-01-19T09:45:53.268Z,46.30
2023-01-19T09:48:33.062Z,46.40
2023-01-19T09:51:04.440Z,46.43
2023-01-19T09:53:50.209Z,46.11
2023-01-19T09:56:24.298Z,46.23
2023-01-19T09:58:54.603Z,45.96
2023-01-19T10:01:30.290Z,45.86
2023-01-19T10:04:09.013Z,45.75
2023-01-19T10:06:42.553Z,45.64
2023-01-19T10:09:24.813Z,45.58
2023-01-19T10:12:35.756Z,45.51
2023-01-19T10:15:14.479Z,45.54
2023-01-19T10:18:03.299Z,45.55
2023-01-19T10:20:46.445Z,45.61
2023-01-19T10:23:43.919Z,45.59
2023-01-19T10:26:24.631Z,45.53
2023-01-19T10:29:16.464Z,45.61
2023-01-19T10:31:46.455Z,45.51
2023-01-19T10:34:19.799Z,44.96
2023-01-19T10:37:05.587Z,45.12
2023-01-19T10:39:39.779Z,45.62
2023-01-19T10:42:20.863Z,45.35
2023-01-19T10:44:51.017Z,45.64
2023-01-19T10:47:37.495Z,45.54
2023-01-19T10:50:29.247Z,45.49
2023-01-19T10:53:05.192Z,45.49
2023-01-19T10:55:34.878Z,45.44
2023-01-19T10:58:29.515Z,45.39
2023-01-19T11:01:14.385Z,45.37
2023-01-19T11:03:45.568Z,45.35
2023-01-19T11:06:22.450Z,45.42
2023-01-19T11:09:09.432Z,45.45
2023-01-19T11:11:48.102Z,45.43
2023-01-19T11:14:22.034Z,45.41
2023-01-19T11:16:55.558Z,45.25
2023-01-19T11:19:29.673Z,45.23
2023-01-19T11:22:18.139Z,45.27
2023-01-19T11:24:50.829Z,45.29
2023-01-19T11:27:21.511Z,45.33
2023-01-19T11:30:06.577Z,45.44
2023-01-19T11:32:43.123Z,45.68
2023-01-19T11:35:40.244Z,45.65
2023-01-19T11:38:25.001Z,45.51
2023-01-19T11:41:01.266Z,45.55
2023-01-19T11:43:43.550Z,45.30
2023-01-19T11:46:16.751Z,45.57
2023-01-19T11:48:50.007Z,45.58
2023-01-19T11:51:23.630Z,45.46
2023-01-19T11:53:56.940Z,45.45
2023-01-19T11:56:31.558Z,45.42
2023-01-19T11:59:01.852Z,45.59
2023-01-19T12:01:34.823Z,45.55
2023-01-19T12:04:16.255Z,45.75
2023-01-19T12:06:55.866Z,45.77
2023-01-19T12:09:37.025Z,45.73
2023-01-19T12:12:25.875Z,45.70
2023-01-19T12:15:15.173Z,45.80
2023-01-19T12:17:51.198Z,45.74
2023-01-19T12:20:32.252Z,45.81
2023-01-19T12:23:25.246Z,45.71
2023-01-19T12:26:24.934Z,45.54
2023-01-19T12:29:00.094Z,45.46
2023-01-19T12:31:28.243Z,45.49
2023-01-19T12:33:58.636Z,45.29
2023-01-19T12:36:40.705Z,45.44
2023-01-19T12:39:22.925Z,45.59
2023-01-19T12:42:17.041Z,45.55
2023-01-19T12:44:50.044Z,45.57
2023-01-19T12:47:24.588Z,45.59
2023-01-19T12:50:00.256Z,45.62
2023-01-19T12:52:46.276Z,45.58
2023-01-19T12:55:18.210Z,45.53
2023-01-19T12:58:12.522Z,45.64
2023-01-19T13:01:14.174Z,45.53
2023-01-19T13:03:58.803Z,45.65
2023-01-19T13:06:58.380Z,45.62
2023-01-19T13:09:38.384Z,45.66
2023-01-19T13:12:14.793Z,45.71
2023-01-19T13:14:45.036Z,45.65
2023-01-19T13:17:35.991Z,45.48
2023-01-19T13:20:22.790Z,45.65
2023-01-19T13:23:21.068Z,45.49
2023-01-19T13:25:52.962Z,45.57
2023-01-19T13:28:30.988Z,45.46
2023-01-19T13:31:00.260Z,45.21
2023-01-19T13:33:40.800Z,45.37
2023-01-19T13:36:20.290Z,45.54
2023-01-19T13:38:56.043Z,45.58
2023-01-19T13:41:35.348Z,45.66
2023-01-19T13:44:23.803Z,45.86
2023-01-19T13:46:52.104Z,46.00
2023-01-19T13:49:28.258Z,46.67
2023-01-19T13:52:16.740Z,45.64
2023-01-19T13:54:53.634Z,43.04
2023-01-19T13:57:40.684Z,41.43
2023-01-19T14:00:11.169Z,40.79
2023-01-19T14:02:51.850Z,42.42
2023-01-19T14:05:39.934Z,43.90
2023-01-19T14:08:09.901Z,44.51
2023-01-19T14:10:48.130Z,44.76
2023-01-19T14:13:36.033Z,44.91
2023-01-19T14:16:20.616Z,44.95
2023-01-19T14:18:59.760Z,45.00
2023-01-19T14:21:43.139Z,45.01
2023-01-19T14:24:22.935Z,45.00
2023-01-19T14:27:25.081Z,45.16
2023-01-19T14:29:53.049Z,45.08
2023-01-19T14:32:24.428Z,45.05
2023-01-19T14:34:57.293Z,45.05
2023-01-19T14:37:32.748Z,45.05
2023-01-19T14:40:17.423Z,45.07
2023-01-19T14:42:53.255Z,45.42
2023-01-19T14:45:30.336Z,45.17
2023-01-19T14:48:18.830Z,45.13
2023-01-19T14:51:02.369Z,45.21
2023-01-19T14:53:36.918Z,45.28
2023-01-19T14:56:07.316Z,45.39
2023-01-19T14:58:40.793Z,45.61
2023-01-19T15:01:07.854Z,45.73
2023-01-19T15:03:45.826Z,45.58
2023-01-19T15:06:19.613Z,45.44
2023-01-19T15:08:50.907Z,45.50
2023-01-19T15:11:26.889Z,45.56
2023-01-19T15:13:57.891Z,46.16
2023-01-19T15:16:30.452Z,46.19
2023-01-19T15:19:00.525Z,46.28
2023-01-19T15:21:33.373Z,46.48
2023-01-19T15:24:00.785Z,46.51
2023-01-19T15:26:30.502Z,46.61
2023-01-19T15:29:01.180Z,46.31
2023-01-19T15:31:28.147Z,46.23
2023-01-19T15:34:04.079Z,46.34
2023-01-19T15:36:33.623Z,46.41
2023-01-19T15:39:00.787Z,46.34
2023-01-19T15:41:32.943Z,46.20
2023-01-19T15:44:06.827Z,46.28
2023-01-19T15:46:37.488Z,46.26
2023-01-19T15:49:07.931Z,46.17
2023-01-19T15:51:41.139Z,46.36
2023-01-19T15:54:14.291Z,46.40
2023-01-19T15:56:44.853Z,46.36
2023-01-19T15:59:15.322Z,46.48
2023-01-19T16:01:48.709Z,46.33
2023-01-19T16:04:21.895Z,46.32
2023-01-19T16:06:49.086Z,46.20
2023-01-19T16:09:21.841Z,46.20
2023-01-19T16:11:52.431Z,46.17
2023-01-19T16:14:25.562Z,46.24
2023-01-19T16:16:55.137Z,46.35
2023-01-19T16:19:28.219Z,46.58
2023-01-19T16:21:55.086Z,46.31
2023-01-19T16:24:24.558Z,46.30
2023-01-19T16:26:54.824Z,46.28
2023-01-19T16:29:22.154Z,46.33
2023-01-19T16:31:49.660Z,46.36
2023-01-19T16:34:19.812Z,46.50
2023-01-19T16:36:46.682Z,46.32
2023-01-19T16:39:15.873Z,46.40
2023-01-19T16:41:43.984Z,46.36
2023-01-19T16:44:12.920Z,46.18
2023-01-19T16:46:42.123Z,46.33
2023-01-19T16:49:20.730Z,46.75
2023-01-19T16:51:48.985Z,46.64
2023-01-19T16:54:22.284Z,46.58
2023-01-19T16:56:53.379Z,46.67
2023-01-19T16:59:24.128Z,47.01
2023-01-19T17:01:58.136Z,47.28
2023-01-19T17:04:28.737Z,47.45
2023-01-19T17:07:02.504Z,47.40
2023-01-19T17:09:35.387Z,47.47
2023-01-19T17:12:08.511Z,47.41
2023-01-19T17:14:35.495Z,47.64
2023-01-19T17:17:09.081Z,47.26
2023-01-19T17:19:40.067Z,46.74
2023-01-19T17:22:10.385Z,46.77
2023-01-19T17:24:42.975Z,47.14
2023-01-19T17:27:11.182Z,46.72
2023-01-19T17:29:44.381Z,46.16
2023-01-19T17:32:18.513Z,46.78
2023-01-19T17:34:49.655Z,46.78
2023-01-19T17:37:26.157Z,47.06
2023-01-19T17:39:56.260Z,47.10
2023-01-19T17:42:26.959Z,46.95
2023-01-19T17:44:59.625Z,46.76
2023-01-19T17:47:29.990Z,46.65
2023-01-19T17:50:00.502Z,46.45
2023-01-19T17:52:34.429Z,46.19
2023-01-19T17:55:04.580Z,46.25
2023-01-19T17:57:38.069Z,46.24
2023-01-19T18:00:09.886Z,46.24
2023-01-19T18:02:40.509Z,46.17
2023-01-19T18:05:11.749Z,46.22
2023-01-19T18:07:43.207Z,46.16
2023-01-19T18:10:11.648Z,46.18
2023-01-19T18:12:39.154Z,46.16
2023-01-19T18:15:10.983Z,46.16
2023-01-19T18:17:38.280Z,46.22
2023-01-19T18:20:06.862Z,46.18
2023-01-19T18:22:37.371Z,46.25
2023-01-19T18:25:04.578Z,46.16
2023-01-19T18:27:34.905Z,45.94
2023-01-19T18:30:01.862Z,46.10
2023-01-19T18:32:29.116Z,45.95
2023-01-19T18:34:56.204Z,46.04
2023-01-19T18:37:25.603Z,46.08
2023-01-19T18:39:52.665Z,46.08
2023-01-19T18:42:19.591Z,46.06
2023-01-19T18:44:57.269Z,46.08
2023-01-19T18:47:24.366Z,46.03
2023-01-19T18:49:51.167Z,45.95
2023-01-19T18:52:18.515Z,45.89
2023-01-19T18:54:45.466Z,45.83
2023-01-19T18:57:12.384Z,45.73
2023-01-19T18:59:42.577Z,45.62
2023-01-19T19:02:12.010Z,45.69
2023-01-19T19:04:42.414Z,45.58
2023-01-19T19:07:12.556Z,45.46
2023-01-19T19:09:39.498Z,45.37
2023-01-19T19:12:09.760Z,45.50
2023-01-19T19:14:36.697Z,45.60
2023-01-19T19:17:04.079Z,45.48
2023-01-19T19:19:31.057Z,45.43
2023-01-19T19:21:58.167Z,45.23
2023-01-19T19:24:32.587Z,45.08
2023-01-19T19:26:59.481Z,45.21
2023-01-19T19:29:29.646Z,45.08
2023-01-19T19:31:56.615Z,44.89
2023-01-19T19:34:23.398Z,44.68
2023-01-19T19:36:50.417Z,44.52
2023-01-19T19:39:17.320Z,44.44
2023-01-19T19:41:46.729Z,44.32
2023-01-19T19:44:13.446Z,44.28
2023-01-19T19:46:40.132Z,44.16
2023-01-19T19:49:07.718Z,44.03
2023-01-19T19:51:34.987Z,43.94
2023-01-19T19:54:04.644Z,43.93
2023-01-19T19:56:32.279Z,43.90
2023-01-19T19:58:59.725Z,43.76
2023-01-19T20:01:32.281Z,43.67
2023-01-19T20:04:08.599Z,43.59
2023-01-19T20:06:36.142Z,43.55
2023-01-19T20:09:02.858Z,43.51
2023-01-19T20:11:29.619Z,43.38
2023-01-19T20:13:56.282Z,43.46
2023-01-19T20:16:23.843Z,43.37
2023-01-19T20:18:54.613Z,43.28
2023-01-19T20:21:27.388Z,43.21
2023-01-19T20:23:56.491Z,43.18
2023-01-19T20:26:26.428Z,43.15
2023-01-19T20:28:54.632Z,43.11
2023-01-19T20:31:26.125Z,42.94
2023-01-19T20:33:53.706Z,43.02
2023-01-19T20:36:20.707Z,42.90
2023-01-19T20:38:47.739Z,43.13
2023-01-19T20:41:14.474Z,43.02
2023-01-19T20:43:41.768Z,42.85
2023-01-19T20:46:09.264Z,43.01
2023-01-19T20:48:37.000Z,42.66
2023-01-19T20:51:09.512Z,42.73
2023-01-19T20:53:41.094Z,42.59
2023-01-19T20:56:11.644Z,42.59
2023-01-19T20:58:39.258Z,42.39
2023-01-19T21:01:17.598Z,42.50
2023-01-19T21:03:44.903Z,42.32
2023-01-19T21:06:12.257Z,42.30
2023-01-19T21:08:40.536Z,42.27
2023-01-19T21:11:11.025Z,42.40
2023-01-19T21:13:37.705Z,42.32
2023-01-19T21:16:05.384Z,42.33
2023-01-19T21:18:32.888Z,42.25
2023-01-19T21:21:02.772Z,42.15
2023-01-19T21:23:31.008Z,42.06
2023-01-19T21:26:03.096Z,42.13
2023-01-19T21:28:31.771Z,42.04
2023-01-19T21:30:58.426Z,42.08
2023-01-19T21:33:25.237Z,42.06
2023-01-19T21:35:53.816Z,41.97
2023-01-19T21:38:21.491Z,41.96
2023-01-19T21:40:48.370Z,41.91
2023-01-19T21:43:15.286Z,41.93
2023-01-19T21:45:45.913Z,41.81
2023-01-19T21:48:12.788Z,42.10
2023-01-19T21:50:43.086Z,41.84
2023-01-19T21:53:15.483Z,41.75
2023-01-19T21:55:46.424Z,41.70
2023-01-19T21:58:14.396Z,41.65
2023-01-19T22:00:47.715Z,41.63
2023-01-19T22:03:20.649Z,41.67
2023-01-19T22:05:53.160Z,41.69
2023-01-19T22:08:23.273Z,41.73
2023-01-19T22:10:50.172Z,41.97
2023-01-19T22:13:25.980Z,42.34
2023-01-19T22:16:02.733Z,42.44
2023-01-19T22:18:31.186Z,42.44
2023-01-19T22:21:08.897Z,42.58
2023-01-19T22:23:36.319Z,42.62
2023-01-19T22:26:10.491Z,42.21
2023-01-19T22:28:45.121Z,42.16
2023-01-19T22:31:23.257Z,42.06
2023-01-19T22:34:30.938Z,42.13
2023-01-19T22:37:04.112Z,42.25
2023-01-19T22:39:49.634Z,42.21
2023-01-19T22:42:19.533Z,42.22
2023-01-19T22:44:46.326Z,42.33
2023-01-19T22:47:13.175Z,42.17
2023-01-19T22:49:39.814Z,42.24
2023-01-19T22:52:12.188Z,42.27
2023-01-19T22:54:43.594Z,42.27
2023-01-19T22:57:10.374Z,42.40
2023-01-19T22:59:37.433Z,42.32
2023-01-19T23:02:09.715Z,42.43
2023-01-19T23:04:59.471Z,42.41
2023-01-19T23:07:29.720Z,42.44
2023-01-19T23:10:04.704Z,42.34
2023-01-19T23:12:33.622Z,42.40
2023-01-19T23:15:20.036Z,42.35
2023-01-19T23:18:25.656Z,42.42
2023-01-19T23:21:32.595Z,42.49
2023-01-19T23:24:02.701Z,42.45
2023-01-19T23:26:32.559Z,42.33
2023-01-19T23:29:39.134Z,42.38
2023-01-19T23:32:27.104Z,42.45
2023-01-19T23:34:59.669Z,42.43
2023-01-19T23:37:46.204Z,42.46
2023-01-19T23:40:16.662Z,42.44
2023-01-19T23:42:45.938Z,42.40
2023-01-19T23:45:19.672Z,42.45
2023-01-19T23:50:54.504Z,42.47
2023-01-19T23:56:43.254Z,42.54
2023-01-19T23:59:15.863Z,42.41
